createdAt,value
2023-08-29T00:01:51.015Z,15.63
2023-08-29T00:04:17.916Z,15.64
2023-08-29T00:06:44.826Z,15.67
2023-08-29T00:09:11.773Z,15.63
2023-08-29T00:11:38.747Z,15.64
2023-08-29T00:14:05.714Z,15.63
2023-08-29T00:16:32.965Z,15.61
2023-08-29T00:18:59.796Z,15.61
2023-08-29T00:21:26.840Z,15.56
2023-08-29T00:23:53.744Z,15.49
2023-08-29T00:26:20.647Z,15.47
2023-08-29T00:28:49.402Z,15.47
2023-08-29T00:31:16.541Z,15.52
2023-08-29T00:33:43.472Z,15.49
2023-08-29T00:36:10.419Z,15.48
2023-08-29T00:38:37.246Z,15.45
2023-08-29T00:41:04.201Z,15.42
2023-08-29T00:43:31.164Z,15.44
2023-08-29T00:46:00.040Z,15.41
2023-08-29T00:48:27.167Z,15.40
2023-08-29T00:50:56.362Z,15.41
2023-08-29T00:53:24.804Z,15.39
2023-08-29T00:55:52.364Z,15.34
2023-08-29T00:58:20.543Z,15.35
2023-08-29T01:00:47.623Z,15.33
2023-08-29T01:03:19.865Z,15.31
2023-08-29T01:05:46.782Z,15.35
2023-08-29T01:08:13.872Z,15.39
2023-08-29T01:11:04.078Z,15.39
2023-08-29T01:13:36.883Z,15.35
2023-08-29T01:16:08.131Z,15.32
2023-08-29T01:18:38.126Z,15.32
2023-08-29T01:21:44.416Z,15.33
2023-08-29T01:24:30.451Z,15.33
2023-08-29T01:26:58.891Z,15.33
2023-08-29T01:29:27.081Z,15.36
2023-08-29T01:31:54.184Z,15.37
2023-08-29T01:34:21.301Z,15.38
2023-08-29T01:36:48.307Z,15.38
2023-08-29T01:39:15.600Z,15.36
2023-08-29T01:41:42.456Z,15.32
2023-08-29T01:44:09.490Z,15.35
2023-08-29T01:46:37.034Z,15.38
2023-08-29T01:49:04.909Z,15.41
2023-08-29T01:51:32.000Z,15.41
2023-08-29T01:53:59.389Z,15.39
2023-08-29T01:56:29.812Z,15.36
2023-08-29T01:58:59.175Z,15.38
2023-08-29T02:01:26.683Z,15.39
2023-08-29T02:03:53.751Z,15.40
2023-08-29T02:06:21.128Z,15.41
2023-08-29T02:08:48.598Z,15.42
2023-08-29T02:11:15.565Z,15.44
2023-08-29T02:13:43.079Z,15.42
2023-08-29T02:16:10.046Z,15.41
2023-08-29T02:18:36.991Z,15.41
2023-08-29T02:21:04.038Z,15.40
2023-08-29T02:23:30.916Z,15.41
2023-08-29T02:26:05.570Z,15.36
2023-08-29T02:28:39.775Z,15.34
2023-08-29T02:31:09.036Z,15.33
2023-08-29T02:33:38.525Z,15.37
2023-08-29T02:36:06.855Z,15.31
2023-08-29T02:38:34.922Z,15.29
2023-08-29T02:41:02.000Z,15.29
2023-08-29T02:43:29.620Z,15.27
2023-08-29T02:45:57.190Z,15.26
2023-08-29T02:48:24.115Z,15.23
2023-08-29T02:50:51.441Z,15.26
2023-08-29T02:53:19.041Z,15.22
2023-08-29T02:55:45.998Z,15.25
2023-08-29T02:58:12.934Z,15.19
2023-08-29T03:00:40.847Z,15.20
2023-08-29T03:03:07.936Z,15.18
2023-08-29T03:05:35.166Z,15.16
2023-08-29T03:08:06.411Z,15.16
2023-08-29T03:10:38.282Z,15.17
2023-08-29T03:13:05.493Z,15.19
2023-08-29T03:15:33.430Z,15.17
2023-08-29T03:18:00.465Z,15.18
2023-08-29T03:20:29.161Z,15.12
2023-08-29T03:22:56.025Z,15.13
2023-08-29T03:25:23.775Z,15.16
2023-08-29T03:27:50.766Z,15.16
2023-08-29T03:30:42.815Z,15.16
2023-08-29T03:33:09.995Z,15.14
2023-08-29T03:35:37.327Z,15.20
2023-08-29T03:38:06.291Z,15.22
2023-08-29T03:40:33.502Z,15.23
2023-08-29T03:43:00.452Z,15.23
2023-08-29T03:45:27.328Z,15.21
2023-08-29T03:47:54.276Z,15.20
2023-08-29T03:50:22.195Z,15.18
2023-08-29T03:52:50.298Z,15.16
2023-08-29T03:55:17.862Z,15.18
2023-08-29T03:57:44.763Z,15.24
2023-08-29T04:00:13.354Z,15.27
2023-08-29T04:02:43.456Z,15.27
2023-08-29T04:05:15.176Z,15.26
2023-08-29T04:07:42.409Z,15.28
2023-08-29T04:10:09.966Z,15.27
2023-08-29T04:13:01.984Z,15.25
2023-08-29T04:15:29.203Z,15.29
2023-08-29T04:17:56.113Z,15.31
2023-08-29T04:20:23.122Z,15.30
2023-08-29T04:22:50.011Z,15.32
2023-08-29T04:25:17.072Z,15.33
2023-08-29T04:27:44.121Z,15.33
2023-08-29T04:30:11.513Z,15.37
2023-08-29T04:32:38.683Z,15.38
2023-08-29T04:35:07.601Z,15.40
2023-08-29T04:37:35.436Z,15.43
2023-08-29T04:40:03.884Z,15.41
2023-08-29T04:42:30.814Z,15.40
2023-08-29T04:44:57.738Z,15.41
2023-08-29T04:47:24.835Z,15.39
2023-08-29T04:49:51.762Z,15.36
2023-08-29T04:52:18.625Z,15.36
2023-08-29T04:54:45.631Z,15.32
2023-08-29T04:57:12.514Z,15.34
2023-08-29T04:59:39.370Z,15.35
2023-08-29T05:02:06.289Z,15.35
2023-08-29T05:04:33.191Z,15.32
2023-08-29T05:07:00.155Z,15.31
2023-08-29T05:09:27.784Z,15.37
2023-08-29T05:11:54.754Z,15.32
2023-08-29T05:14:21.647Z,15.31
2023-08-29T05:16:48.629Z,15.35
2023-08-29T05:19:15.592Z,15.35
2023-08-29T05:21:42.638Z,15.38
2023-08-29T05:24:11.364Z,15.31
2023-08-29T05:26:38.254Z,15.31
2023-08-29T05:29:05.271Z,15.28
2023-08-29T05:31:32.253Z,15.33
2023-08-29T05:34:00.568Z,15.36
2023-08-29T05:36:27.347Z,15.37
2023-08-29T05:38:54.251Z,15.37
2023-08-29T05:41:22.748Z,15.38
2023-08-29T05:43:49.625Z,15.36
2023-08-29T05:46:16.572Z,15.33
2023-08-29T05:48:43.471Z,15.32
2023-08-29T05:51:11.690Z,15.36
2023-08-29T05:53:38.541Z,15.39
2023-08-29T05:56:05.455Z,15.39
2023-08-29T05:58:32.418Z,15.42
2023-08-29T06:00:59.341Z,15.41
2023-08-29T06:03:26.490Z,15.35
2023-08-29T06:05:53.562Z,15.35
2023-08-29T06:08:20.791Z,15.36
2023-08-29T06:10:48.068Z,15.32
2023-08-29T06:13:14.997Z,15.35
2023-08-29T06:15:42.042Z,15.36
2023-08-29T06:18:09.308Z,15.39
2023-08-29T06:20:36.561Z,15.41
2023-08-29T06:23:03.591Z,15.38
2023-08-29T06:25:30.639Z,15.41
2023-08-29T06:27:57.473Z,15.39
2023-08-29T06:30:24.780Z,15.39
2023-08-29T06:32:51.833Z,15.38
2023-08-29T06:35:18.855Z,15.35
2023-08-29T06:37:45.738Z,15.35
2023-08-29T06:40:12.953Z,15.37
2023-08-29T06:42:39.824Z,15.37
2023-08-29T06:45:07.386Z,15.37
2023-08-29T06:47:34.264Z,15.36
2023-08-29T06:50:01.592Z,15.37
2023-08-29T06:52:28.410Z,15.41
2023-08-29T06:54:55.251Z,15.43
2023-08-29T06:57:22.190Z,15.46
2023-08-29T06:59:49.017Z,15.49
2023-08-29T07:02:15.861Z,15.49
2023-08-29T07:04:42.793Z,15.48
2023-08-29T07:07:09.579Z,15.48
2023-08-29T07:09:36.480Z,15.52
2023-08-29T07:12:03.626Z,15.49
2023-08-29T07:14:30.454Z,15.49
2023-08-29T07:17:09.556Z,15.51
2023-08-29T07:19:37.778Z,15.54
2023-08-29T07:22:13.358Z,15.64
2023-08-29T07:24:50.212Z,15.66
2023-08-29T07:27:17.172Z,15.72
2023-08-29T07:29:44.089Z,15.77
2023-08-29T07:32:11.126Z,15.87
2023-08-29T07:34:38.747Z,15.86
2023-08-29T07:37:05.817Z,15.87
2023-08-29T07:39:33.091Z,15.83
2023-08-29T07:42:00.013Z,15.79
2023-08-29T07:44:26.842Z,15.77
2023-08-29T07:47:11.934Z,15.76
2023-08-29T07:49:40.783Z,15.78
2023-08-29T07:52:07.648Z,15.79
2023-08-29T07:54:34.644Z,15.79
2023-08-29T07:57:01.608Z,15.77
2023-08-29T07:59:28.526Z,15.75
2023-08-29T08:01:55.468Z,15.74
2023-08-29T08:04:22.713Z,15.75
2023-08-29T08:06:49.593Z,15.75
2023-08-29T08:09:17.372Z,15.73
2023-08-29T08:11:44.288Z,15.73
2023-08-29T08:14:11.299Z,15.73
2023-08-29T08:16:38.204Z,15.69
2023-08-29T08:19:05.280Z,15.67
2023-08-29T08:21:32.255Z,15.62
2023-08-29T08:23:59.229Z,15.63
2023-08-29T08:26:26.034Z,15.57
2023-08-29T08:28:52.945Z,15.61
2023-08-29T08:31:20.079Z,15.62
2023-08-29T08:33:47.222Z,15.65
2023-08-29T08:36:14.064Z,15.66
2023-08-29T08:38:40.979Z,15.68
2023-08-29T08:41:10.886Z,15.70
2023-08-29T08:43:42.404Z,15.69
2023-08-29T08:46:11.665Z,15.71
2023-08-29T08:48:39.400Z,15.70
2023-08-29T08:51:07.170Z,15.71
2023-08-29T08:53:37.221Z,15.71
2023-08-29T08:56:04.772Z,15.70
2023-08-29T08:58:31.764Z,15.69
2023-08-29T09:00:58.866Z,15.70
2023-08-29T09:03:25.790Z,15.70
2023-08-29T09:05:52.773Z,15.68
2023-08-29T09:08:21.339Z,15.70
2023-08-29T09:10:48.252Z,15.70
2023-08-29T09:13:16.051Z,15.69
2023-08-29T09:15:43.012Z,15.66
2023-08-29T09:18:12.614Z,15.61
2023-08-29T09:20:44.097Z,15.61
2023-08-29T09:23:25.013Z,15.65
2023-08-29T09:25:59.530Z,15.61
2023-08-29T09:28:30.628Z,15.65
2023-08-29T09:31:06.637Z,15.74
2023-08-29T09:33:34.940Z,15.74
2023-08-29T09:36:02.866Z,15.74
2023-08-29T09:38:31.589Z,15.77
2023-08-29T09:40:58.501Z,15.78
2023-08-29T09:43:29.228Z,15.78
2023-08-29T09:45:57.516Z,15.78
2023-08-29T09:48:24.719Z,15.82
2023-08-29T09:50:53.078Z,15.79
2023-08-29T09:53:21.414Z,15.77
2023-08-29T09:55:56.744Z,15.74
2023-08-29T09:58:27.285Z,15.76
2023-08-29T10:00:55.254Z,15.75
2023-08-29T10:03:23.627Z,15.75
2023-08-29T10:05:51.337Z,15.76
2023-08-29T10:08:40.048Z,15.80
2023-08-29T10:11:07.764Z,15.79
2023-08-29T10:13:35.684Z,15.79
2023-08-29T10:16:04.355Z,15.86
2023-08-29T10:18:33.325Z,15.92
2023-08-29T10:21:03.314Z,15.88
2023-08-29T10:23:32.155Z,15.93
2023-08-29T10:25:59.518Z,15.89
2023-08-29T10:28:26.668Z,15.91
2023-08-29T10:30:57.516Z,15.89
2023-08-29T10:33:24.554Z,15.94
2023-08-29T10:35:51.991Z,15.92
2023-08-29T10:38:19.464Z,15.88
2023-08-29T10:40:46.539Z,15.92
2023-08-29T10:43:23.109Z,15.91
2023-08-29T10:45:55.251Z,15.94
2023-08-29T10:48:23.931Z,15.92
2023-08-29T10:51:08.987Z,15.92
2023-08-29T10:53:39.886Z,15.86
2023-08-29T10:56:08.209Z,15.85
2023-08-29T10:58:37.971Z,15.81
2023-08-29T11:01:06.421Z,15.82
2023-08-29T11:03:42.943Z,15.80
2023-08-29T11:06:09.889Z,15.83
2023-08-29T11:08:36.747Z,15.82
2023-08-29T11:11:23.470Z,15.85
2023-08-29T11:14:03.115Z,15.86
2023-08-29T11:16:36.932Z,15.89
2023-08-29T11:19:16.583Z,15.91
2023-08-29T11:21:46.677Z,15.89
2023-08-29T11:24:16.850Z,15.92
2023-08-29T11:26:47.232Z,15.88
2023-08-29T11:29:14.118Z,15.84
2023-08-29T11:31:42.363Z,15.89
2023-08-29T11:34:27.434Z,15.92
2023-08-29T11:36:54.981Z,15.95
2023-08-29T11:39:22.010Z,15.89
2023-08-29T11:42:10.837Z,15.85
2023-08-29T11:45:01.824Z,15.91
2023-08-29T11:47:23.043Z,15.87
2023-08-29T11:49:51.066Z,15.83
2023-08-29T11:52:18.348Z,15.80
2023-08-29T11:54:50.435Z,15.82
2023-08-29T11:57:17.935Z,15.83
2023-08-29T11:59:46.554Z,15.83
2023-08-29T12:02:18.652Z,15.87
2023-08-29T12:04:49.179Z,15.86
2023-08-29T12:07:18.845Z,15.92
2023-08-29T12:09:47.648Z,15.93
2023-08-29T12:12:37.327Z,15.91
2023-08-29T12:15:05.719Z,15.87
2023-08-29T12:17:34.714Z,15.88
2023-08-29T12:20:06.891Z,15.89
2023-08-29T12:22:59.135Z,15.87
2023-08-29T12:25:26.252Z,15.91
2023-08-29T12:27:53.139Z,15.86
2023-08-29T12:30:20.135Z,15.91
2023-08-29T12:32:47.924Z,15.97
2023-08-29T12:35:16.300Z,16.04
2023-08-29T12:37:43.261Z,16.12
2023-08-29T12:40:10.817Z,16.17
2023-08-29T12:42:38.242Z,16.15
2023-08-29T12:45:06.376Z,16.17
2023-08-29T12:47:33.506Z,16.17
2023-08-29T12:50:00.358Z,16.23
2023-08-29T12:52:51.890Z,16.21
2023-08-29T12:55:18.874Z,16.20
2023-08-29T12:57:45.741Z,16.25
2023-08-29T13:00:13.776Z,16.27
2023-08-29T13:02:40.700Z,16.32
2023-08-29T13:05:07.919Z,16.33
2023-08-29T13:07:34.824Z,16.33
2023-08-29T13:10:01.691Z,16.30
2023-08-29T13:12:28.595Z,16.28
2023-08-29T13:14:55.572Z,16.29
2023-08-29T13:17:22.415Z,16.32
2023-08-29T13:19:49.326Z,16.33
2023-08-29T13:22:16.346Z,16.36
2023-08-29T13:24:43.283Z,16.40
2023-08-29T13:27:10.488Z,16.39
2023-08-29T13:29:37.467Z,16.40
2023-08-29T13:32:04.677Z,16.52
2023-08-29T13:34:31.585Z,16.57
2023-08-29T13:36:58.595Z,16.52
2023-08-29T13:39:25.478Z,16.61
2023-08-29T13:41:52.343Z,16.64
2023-08-29T13:44:19.251Z,16.69
2023-08-29T13:46:46.544Z,16.69
2023-08-29T13:49:13.998Z,16.73
2023-08-29T13:51:40.876Z,16.72
2023-08-29T13:54:07.739Z,16.68
2023-08-29T13:56:34.700Z,16.69
2023-08-29T13:59:01.583Z,16.75
2023-08-29T14:01:28.701Z,16.88
2023-08-29T14:03:55.814Z,17.02
2023-08-29T14:06:22.854Z,17.02
2023-08-29T14:08:49.768Z,16.98
2023-08-29T14:11:16.854Z,16.94
2023-08-29T14:13:44.201Z,16.97
2023-08-29T14:16:11.723Z,16.95
2023-08-29T14:18:39.648Z,17.03
2023-08-29T14:21:09.509Z,17.06
2023-08-29T14:23:36.700Z,17.09
2023-08-29T14:26:03.728Z,17.10
2023-08-29T14:28:30.870Z,17.12
2023-08-29T14:30:58.358Z,17.11
2023-08-29T14:33:25.408Z,17.06
2023-08-29T14:35:56.032Z,17.04
2023-08-29T14:38:23.416Z,17.04
2023-08-29T14:40:50.388Z,16.98
2023-08-29T14:43:17.629Z,16.97
2023-08-29T14:45:46.242Z,16.99
2023-08-29T14:48:13.418Z,16.95
2023-08-29T14:50:45.106Z,16.95
2023-08-29T14:53:12.605Z,16.99
2023-08-29T14:55:39.910Z,17.02
2023-08-29T14:58:07.084Z,16.98
2023-08-29T15:00:34.650Z,17.07
2023-08-29T15:03:02.739Z,17.13
2023-08-29T15:05:30.045Z,17.22
2023-08-29T15:07:57.421Z,17.11
2023-08-29T15:10:24.590Z,16.99
2023-08-29T15:12:51.506Z,16.92
2023-08-29T15:15:19.648Z,16.88
2023-08-29T15:17:47.049Z,16.85
2023-08-29T15:20:13.988Z,16.79
2023-08-29T15:22:45.056Z,16.69
2023-08-29T15:25:12.671Z,16.72
2023-08-29T15:27:40.136Z,16.70
2023-08-29T15:30:07.972Z,16.63
2023-08-29T15:32:35.187Z,16.63
2023-08-29T15:35:06.017Z,16.57
2023-08-29T15:37:34.330Z,16.57
2023-08-29T15:40:01.886Z,16.55
2023-08-29T15:42:31.679Z,16.53
2023-08-29T15:44:59.110Z,16.47
2023-08-29T15:47:26.624Z,16.47
2023-08-29T15:49:53.863Z,16.44
2023-08-29T15:52:21.207Z,16.39
2023-08-29T15:54:51.371Z,16.36
2023-08-29T15:57:18.294Z,16.34
2023-08-29T15:59:45.392Z,16.32
2023-08-29T16:02:12.799Z,16.36
2023-08-29T16:04:40.656Z,16.35
2023-08-29T16:07:08.166Z,16.32
2023-08-29T16:09:35.566Z,16.24
2023-08-29T16:12:03.089Z,16.22
2023-08-29T16:14:30.225Z,16.20
2023-08-29T16:16:58.774Z,16.14
2023-08-29T16:19:26.084Z,16.14
2023-08-29T16:21:53.425Z,16.15
2023-08-29T16:24:20.800Z,16.10
2023-08-29T16:26:48.022Z,16.09
2023-08-29T16:29:15.175Z,16.10
2023-08-29T16:31:42.625Z,16.09
2023-08-29T16:34:09.761Z,16.04
2023-08-29T16:36:36.608Z,16.02
2023-08-29T16:39:04.042Z,16.00
2023-08-29T16:41:31.011Z,15.97
2023-08-29T16:43:58.417Z,16.01
2023-08-29T16:46:25.880Z,16.02
2023-08-29T16:48:54.730Z,16.00
2023-08-29T16:51:21.952Z,15.91
2023-08-29T16:53:49.517Z,15.90
2023-08-29T16:56:16.551Z,15.89
2023-08-29T16:58:44.453Z,15.88
2023-08-29T17:01:13.256Z,15.87
2023-08-29T17:03:40.708Z,15.86
2023-08-29T17:06:08.155Z,15.85
2023-08-29T17:08:35.126Z,15.86
2023-08-29T17:11:03.263Z,15.85
2023-08-29T17:13:30.374Z,15.82
2023-08-29T17:15:57.624Z,15.77
2023-08-29T17:18:25.237Z,15.80
2023-08-29T17:20:52.765Z,15.76
2023-08-29T17:23:21.508Z,15.81
2023-08-29T17:25:49.284Z,15.73
2023-08-29T17:28:16.759Z,15.72
2023-08-29T17:30:44.247Z,15.72
2023-08-29T17:33:11.690Z,15.66
2023-08-29T17:35:39.459Z,15.66
2023-08-29T17:38:07.082Z,15.67
2023-08-29T17:40:36.198Z,15.65
2023-08-29T17:43:04.304Z,15.63
2023-08-29T17:45:32.283Z,15.62
2023-08-29T17:48:00.314Z,15.62
2023-08-29T17:50:27.525Z,15.64
2023-08-29T17:52:54.547Z,15.62
2023-08-29T17:55:22.005Z,15.61
2023-08-29T17:57:50.083Z,15.55
2023-08-29T18:00:20.977Z,15.56
2023-08-29T18:02:48.789Z,15.55
2023-08-29T18:05:16.835Z,15.51
2023-08-29T18:07:44.607Z,15.46
2023-08-29T18:10:13.788Z,15.46
2023-08-29T18:12:41.424Z,15.50
2023-08-29T18:15:10.830Z,15.49
2023-08-29T18:17:41.792Z,15.51
2023-08-29T18:20:09.434Z,15.49
2023-08-29T18:22:37.144Z,15.49
2023-08-29T18:25:05.006Z,15.48
2023-08-29T18:27:32.859Z,15.49
2023-08-29T18:30:00.761Z,15.55
2023-08-29T18:32:31.454Z,15.51
2023-08-29T18:34:59.763Z,15.45
2023-08-29T18:37:27.797Z,15.48
2023-08-29T18:40:20.043Z,15.47
2023-08-29T18:42:48.861Z,15.44
2023-08-29T18:45:16.365Z,15.41
2023-08-29T18:47:45.883Z,15.39
2023-08-29T18:50:13.926Z,15.38
2023-08-29T18:52:41.966Z,15.31
2023-08-29T18:55:09.864Z,15.23
2023-08-29T18:57:37.898Z,15.18
2023-08-29T19:00:10.813Z,15.08
2023-08-29T19:02:42.566Z,15.08
2023-08-29T19:05:13.255Z,14.99
2023-08-29T19:07:41.033Z,14.96
2023-08-29T19:10:09.741Z,14.95
2023-08-29T19:12:37.436Z,14.95
2023-08-29T19:15:06.060Z,14.88
2023-08-29T19:17:34.463Z,14.86
2023-08-29T19:20:02.672Z,14.84
2023-08-29T19:22:29.815Z,14.82
2023-08-29T19:24:59.135Z,14.80
2023-08-29T19:27:28.832Z,14.83
2023-08-29T19:29:57.063Z,14.77
2023-08-29T19:32:24.692Z,14.77
2023-08-29T19:34:52.488Z,14.79
2023-08-29T19:37:19.969Z,14.76
2023-08-29T19:39:47.193Z,14.73
2023-08-29T19:42:15.280Z,14.74
2023-08-29T19:44:42.873Z,14.66
2023-08-29T19:47:10.246Z,14.67
2023-08-29T19:49:40.007Z,14.65
2023-08-29T19:52:08.184Z,14.63
2023-08-29T19:54:36.447Z,14.65
2023-08-29T19:57:04.647Z,14.68
2023-08-29T19:59:32.821Z,14.64
2023-08-29T20:02:00.268Z,14.64
2023-08-29T20:04:27.661Z,14.68
2023-08-29T20:06:55.551Z,14.68
2023-08-29T20:09:23.010Z,14.67
2023-08-29T20:11:50.722Z,14.68
2023-08-29T20:14:18.418Z,14.69
2023-08-29T20:16:47.495Z,14.68
2023-08-29T20:19:15.776Z,14.65
2023-08-29T20:21:43.602Z,14.64
2023-08-29T20:24:11.370Z,14.60
2023-08-29T20:26:39.874Z,14.62
2023-08-29T20:29:07.219Z,14.59
2023-08-29T20:31:34.312Z,14.59
2023-08-29T20:34:01.612Z,14.57
2023-08-29T20:36:29.067Z,14.56
2023-08-29T20:38:56.803Z,14.55
2023-08-29T20:41:25.661Z,14.50
2023-08-29T20:43:53.214Z,14.51
2023-08-29T20:46:20.751Z,14.54
2023-08-29T20:48:47.783Z,14.53
2023-08-29T20:51:15.080Z,14.52
2023-08-29T20:53:42.061Z,14.50
2023-08-29T20:56:09.656Z,14.50
2023-08-29T20:58:36.748Z,14.43
2023-08-29T21:01:04.213Z,14.46
2023-08-29T21:03:34.252Z,14.48
2023-08-29T21:06:01.270Z,14.45
2023-08-29T21:08:28.416Z,14.48
2023-08-29T21:10:55.892Z,14.46
2023-08-29T21:13:24.869Z,14.46
2023-08-29T21:15:51.755Z,14.46
2023-08-29T21:18:19.990Z,14.46
2023-08-29T21:21:03.333Z,14.40
2023-08-29T21:23:30.717Z,14.44
2023-08-29T21:25:57.715Z,14.40
2023-08-29T21:28:26.093Z,14.44
2023-08-29T21:30:56.465Z,14.40
2023-08-29T21:33:23.819Z,14.40
2023-08-29T21:35:51.423Z,14.40
2023-08-29T21:38:18.412Z,14.37
2023-08-29T21:40:45.658Z,14.40
2023-08-29T21:43:16.211Z,14.44
2023-08-29T21:45:43.265Z,14.40
2023-08-29T21:48:11.364Z,14.35
2023-08-29T21:50:39.960Z,14.34
2023-08-29T21:53:08.479Z,14.37
2023-08-29T21:55:37.026Z,14.38
2023-08-29T21:58:05.421Z,14.36
2023-08-29T22:00:33.931Z,14.40
2023-08-29T22:03:02.462Z,14.39
2023-08-29T22:05:31.974Z,14.42
2023-08-29T22:07:59.696Z,14.40
2023-08-29T22:10:27.051Z,14.43
2023-08-29T22:12:53.961Z,14.45
2023-08-29T22:15:21.210Z,14.41
2023-08-29T22:17:48.566Z,14.43
2023-08-29T22:20:16.536Z,14.46
2023-08-29T22:22:43.432Z,14.51
2023-08-29T22:25:10.650Z,14.49
2023-08-29T22:27:37.732Z,14.47
2023-08-29T22:30:54.237Z,14.47
2023-08-29T22:33:21.126Z,14.50
2023-08-29T22:35:48.177Z,14.49
2023-08-29T22:38:15.009Z,14.47
2023-08-29T22:40:42.522Z,14.50
2023-08-29T22:43:09.441Z,14.51
2023-08-29T22:45:37.051Z,14.53
2023-08-29T22:48:04.469Z,14.55
2023-08-29T22:50:31.349Z,14.57
2023-08-29T22:52:59.078Z,14.56
2023-08-29T22:55:27.153Z,14.54
2023-08-29T22:57:54.997Z,14.57
2023-08-29T23:00:21.998Z,14.56
2023-08-29T23:02:48.948Z,14.53
2023-08-29T23:05:15.952Z,14.54
2023-08-29T23:07:42.970Z,14.56
2023-08-29T23:10:10.610Z,14.52
2023-08-29T23:12:37.636Z,14.55
2023-08-29T23:15:04.924Z,14.55
2023-08-29T23:17:32.068Z,14.54
2023-08-29T23:19:58.951Z,14.57
2023-08-29T23:22:25.881Z,14.57
2023-08-29T23:27:21.412Z,14.59
2023-08-29T23:29:48.430Z,14.59
2023-08-29T23:32:15.259Z,14.61
2023-08-29T23:34:42.161Z,14.64
2023-08-29T23:37:09.039Z,14.63
2023-08-29T23:39:35.939Z,14.63
2023-08-29T23:42:02.754Z,14.61
2023-08-29T23:44:29.737Z,14.62
2023-08-29T23:46:56.651Z,14.62
2023-08-29T23:49:23.664Z,14.63
2023-08-29T23:51:50.505Z,14.64
2023-08-29T23:54:17.449Z,14.65
2023-08-29T23:56:44.393Z,14.67
2023-08-29T23:59:11.134Z,14.65
